Poco Fundo, Brazil
Current Conditions -  °F | °C
As of 5:00 AM on Monday 20 Oct 2014 (Local Time) from SBGW Reporting Station
Haze Haze  
Wind Chill: 66°   Ceiling: 3000
Heat Index: 66°   Visibility: 3mi
Dew Point: 64°   Wind: 10mph
Humidity: 94%   Direction: 60°ENE
Pressure: 29.97"   Gusts: NA
Location:  21.78°S, 45.96°W
Report Text: SBGW 200800Z 06009KT 5000 BR BKN030 BKN080 19/18 Q1015
Loading
Personal Weather Stations






























Interactive Weather Map
Tropical Storm Tracking
New forecast layout! Learn more

10-Day Weather Forecast

Advertisements
Track Severe Weather on mobile